sensor_id;sensor_type;location;lat;lon;timestamp;P1;durP1;ratioP1;P2;durP2;ratioP2
62832;SDS011;48891;49.220;6.920;2022-07-29T00:01:07;3.83;;;2.83;;
62832;SDS011;48891;49.220;6.920;2022-07-29T00:03:32;4.43;;;2.70;;
62832;SDS011;48891;49.220;6.920;2022-07-29T00:05:57;3.40;;;2.50;;
62832;SDS011;48891;49.220;6.920;2022-07-29T00:08:22;3.77;;;2.40;;
62832;SDS011;48891;49.220;6.920;2022-07-29T00:10:47;4.90;;;2.60;;
62832;SDS011;48891;49.220;6.920;2022-07-29T00:13:13;4.87;;;2.90;;
62832;SDS011;48891;49.220;6.920;2022-07-29T00:15:38;4.68;;;2.80;;
62832;SDS011;48891;49.220;6.920;2022-07-29T00:18:03;4.18;;;2.70;;
62832;SDS011;48891;49.220;6.920;2022-07-29T00:20:28;3.35;;;2.60;;
62832;SDS011;48891;49.220;6.920;2022-07-29T00:22:53;3.97;;;3.10;;
62832;SDS011;48891;49.220;6.920;2022-07-29T00:25:18;4.20;;;2.67;;
62832;SDS011;48891;49.220;6.920;2022-07-29T00:27:43;3.43;;;2.83;;
62832;SDS011;48891;49.220;6.920;2022-07-29T00:30:08;3.72;;;2.60;;
62832;SDS011;48891;49.220;6.920;2022-07-29T00:32:34;4.28;;;2.90;;
62832;SDS011;48891;49.220;6.920;2022-07-29T00:34:59;3.55;;;2.50;;
62832;SDS011;48891;49.220;6.920;2022-07-29T00:37:24;4.65;;;3.05;;
62832;SDS011;48891;49.220;6.920;2022-07-29T00:39:49;3.85;;;2.65;;
62832;SDS011;48891;49.220;6.920;2022-07-29T00:42:14;4.37;;;2.70;;
62832;SDS011;48891;49.220;6.920;2022-07-29T00:44:40;4.40;;;2.80;;
62832;SDS011;48891;49.220;6.920;2022-07-29T00:47:05;3.55;;;2.90;;
62832;SDS011;48891;49.220;6.920;2022-07-29T00:49:31;5.10;;;2.80;;
62832;SDS011;48891;49.220;6.920;2022-07-29T00:51:56;3.73;;;2.83;;
62832;SDS011;48891;49.220;6.920;2022-07-29T00:54:21;5.25;;;3.13;;
62832;SDS011;48891;49.220;6.920;2022-07-29T00:56:46;3.20;;;2.50;;
62832;SDS011;48891;49.220;6.920;2022-07-29T00:59:12;3.80;;;2.70;;
62832;SDS011;48891;49.220;6.920;2022-07-29T01:01:37;3.88;;;2.83;;
62832;SDS011;48891;49.220;6.920;2022-07-29T01:04:02;3.50;;;2.60;;
62832;SDS011;48891;49.220;6.920;2022-07-29T01:06:27;5.20;;;2.97;;
62832;SDS011;48891;49.220;6.920;2022-07-29T01:08:52;5.25;;;2.72;;
62832;SDS011;48891;49.220;6.920;2022-07-29T01:11:18;3.37;;;2.90;;
62832;SDS011;48891;49.220;6.920;2022-07-29T01:13:43;4.90;;;2.90;;
62832;SDS011;48891;49.220;6.920;2022-07-29T01:16:18;5.18;;;3.13;;
62832;SDS011;48891;49.220;6.920;2022-07-29T01:18:46;5.18;;;3.10;;
62832;SDS011;48891;49.220;6.920;2022-07-29T01:29:23;4.20;;;2.72;;
62832;SDS011;48891;49.220;6.920;2022-07-29T01:34:21;4.40;;;3.33;;
62832;SDS011;48891;49.220;6.920;2022-07-29T01:36:50;4.03;;;2.85;;
62832;SDS011;48891;49.220;6.920;2022-07-29T01:39:19;3.92;;;2.83;;
62832;SDS011;48891;49.220;6.920;2022-07-29T01:44:35;4.10;;;3.22;;
62832;SDS011;48891;49.220;6.920;2022-07-29T01:49:28;4.13;;;2.90;;
62832;SDS011;48891;49.220;6.920;2022-07-29T01:52:01;4.18;;;2.85;;
62832;SDS011;48891;49.220;6.920;2022-07-29T01:54:38;2.70;;;2.42;;
62832;SDS011;48891;49.220;6.920;2022-07-29T01:57:04;4.65;;;3.15;;
62832;SDS011;48891;49.220;6.920;2022-07-29T01:59:31;5.20;;;3.05;;
62832;SDS011;48891;49.220;6.920;2022-07-29T02:01:58;5.05;;;3.08;;
62832;SDS011;48891;49.220;6.920;2022-07-29T02:04:23;3.65;;;2.75;;
62832;SDS011;48891;49.220;6.920;2022-07-29T02:06:51;4.10;;;3.00;;
62832;SDS011;48891;49.220;6.920;2022-07-29T02:09:17;4.38;;;2.95;;
62832;SDS011;48891;49.220;6.920;2022-07-29T02:11:44;4.13;;;2.90;;
62832;SDS011;48891;49.220;6.920;2022-07-29T02:14:12;4.18;;;2.80;;
62832;SDS011;48891;49.220;6.920;2022-07-29T02:16:39;5.53;;;2.47;;
62832;SDS011;48891;49.220;6.920;2022-07-29T02:19:04;4.60;;;2.90;;
62832;SDS011;48891;49.220;6.920;2022-07-29T02:21:30;4.18;;;2.97;;
62832;SDS011;48891;49.220;6.920;2022-07-29T02:23:57;3.90;;;2.90;;
62832;SDS011;48891;49.220;6.920;2022-07-29T02:26:24;5.25;;;2.90;;
62832;SDS011;48891;49.220;6.920;2022-07-29T02:28:51;4.10;;;2.75;;
62832;SDS011;48891;49.220;6.920;2022-07-29T02:31:17;4.35;;;2.92;;
62832;SDS011;48891;49.220;6.920;2022-07-29T02:33:43;3.60;;;2.80;;
62832;SDS011;48891;49.220;6.920;2022-07-29T02:36:10;4.07;;;3.08;;
62832;SDS011;48891;49.220;6.920;2022-07-29T02:38:35;4.35;;;3.05;;
62832;SDS011;48891;49.220;6.920;2022-07-29T02:41:01;5.35;;;2.92;;
62832;SDS011;48891;49.220;6.920;2022-07-29T02:43:27;6.05;;;3.10;;
62832;SDS011;48891;49.220;6.920;2022-07-29T02:45:53;4.55;;;2.80;;
62832;SDS011;48891;49.220;6.920;2022-07-29T02:48:19;5.63;;;3.15;;
62832;SDS011;48891;49.220;6.920;2022-07-29T02:50:51;4.57;;;2.85;;
62832;SDS011;48891;49.220;6.920;2022-07-29T02:53:20;4.25;;;3.20;;
62832;SDS011;48891;49.220;6.920;2022-07-29T02:55:48;4.70;;;2.77;;
62832;SDS011;48891;49.220;6.920;2022-07-29T03:00:41;4.07;;;2.67;;
62832;SDS011;48891;49.220;6.920;2022-07-29T03:03:11;3.72;;;2.85;;
62832;SDS011;48891;49.220;6.920;2022-07-29T03:05:37;4.75;;;2.88;;
62832;SDS011;48891;49.220;6.920;2022-07-29T03:08:02;4.63;;;2.92;;
62832;SDS011;48891;49.220;6.920;2022-07-29T03:10:28;4.20;;;3.00;;
62832;SDS011;48891;49.220;6.920;2022-07-29T03:12:54;4.18;;;2.80;;
62832;SDS011;48891;49.220;6.920;2022-07-29T03:15:20;4.15;;;2.85;;
62832;SDS011;48891;49.220;6.920;2022-07-29T03:17:46;4.72;;;2.90;;
62832;SDS011;48891;49.220;6.920;2022-07-29T03:20:11;5.68;;;2.90;;
62832;SDS011;48891;49.220;6.920;2022-07-29T03:22:40;3.83;;;2.83;;
62832;SDS011;48891;49.220;6.920;2022-07-29T03:25:12;4.82;;;2.80;;
62832;SDS011;48891;49.220;6.920;2022-07-29T03:27:37;5.15;;;3.45;;
62832;SDS011;48891;49.220;6.920;2022-07-29T03:30:03;4.43;;;2.72;;
62832;SDS011;48891;49.220;6.920;2022-07-29T03:32:28;4.07;;;2.75;;
62832;SDS011;48891;49.220;6.920;2022-07-29T03:34:54;6.03;;;2.90;;
62832;SDS011;48891;49.220;6.920;2022-07-29T03:37:19;3.83;;;2.83;;
62832;SDS011;48891;49.220;6.920;2022-07-29T03:39:44;6.68;;;3.38;;
62832;SDS011;48891;49.220;6.920;2022-07-29T03:42:12;5.35;;;2.92;;
62832;SDS011;48891;49.220;6.920;2022-07-29T03:44:38;4.28;;;3.17;;
62832;SDS011;48891;49.220;6.920;2022-07-29T03:47:06;4.13;;;2.58;;
62832;SDS011;48891;49.220;6.920;2022-07-29T03:49:32;4.53;;;2.78;;
62832;SDS011;48891;49.220;6.920;2022-07-29T03:51:57;4.15;;;2.90;;
62832;SDS011;48891;49.220;6.920;2022-07-29T03:54:23;4.35;;;2.80;;
62832;SDS011;48891;49.220;6.920;2022-07-29T03:56:48;4.40;;;3.20;;
62832;SDS011;48891;49.220;6.920;2022-07-29T03:59:14;4.30;;;2.97;;
62832;SDS011;48891;49.220;6.920;2022-07-29T04:01:39;3.88;;;2.97;;
62832;SDS011;48891;49.220;6.920;2022-07-29T04:04:05;5.28;;;3.08;;
62832;SDS011;48891;49.220;6.920;2022-07-29T04:06:37;4.77;;;3.03;;
62832;SDS011;48891;49.220;6.920;2022-07-29T04:09:02;3.97;;;3.00;;
62832;SDS011;48891;49.220;6.920;2022-07-29T04:11:27;4.50;;;3.20;;
62832;SDS011;48891;49.220;6.920;2022-07-29T04:13:53;6.30;;;3.10;;
62832;SDS011;48891;49.220;6.920;2022-07-29T04:16:18;5.60;;;3.30;;
62832;SDS011;48891;49.220;6.920;2022-07-29T04:18:43;4.63;;;3.10;;
62832;SDS011;48891;49.220;6.920;2022-07-29T04:21:08;3.95;;;3.10;;
62832;SDS011;48891;49.220;6.920;2022-07-29T04:23:33;4.00;;;3.13;;
62832;SDS011;48891;49.220;6.920;2022-07-29T04:25:58;4.57;;;3.03;;
62832;SDS011;48891;49.220;6.920;2022-07-29T04:28:23;4.32;;;3.05;;
62832;SDS011;48891;49.220;6.920;2022-07-29T04:30:49;6.05;;;2.70;;
62832;SDS011;48891;49.220;6.920;2022-07-29T04:33:14;3.73;;;2.60;;
62832;SDS011;48891;49.220;6.920;2022-07-29T04:35:39;4.90;;;2.90;;
62832;SDS011;48891;49.220;6.920;2022-07-29T04:38:04;4.72;;;2.85;;
62832;SDS011;48891;49.220;6.920;2022-07-29T04:40:30;4.70;;;2.97;;
62832;SDS011;48891;49.220;6.920;2022-07-29T04:42:55;5.43;;;3.20;;
62832;SDS011;48891;49.220;6.920;2022-07-29T04:45:20;6.55;;;3.33;;
62832;SDS011;48891;49.220;6.920;2022-07-29T04:47:45;4.10;;;3.20;;
62832;SDS011;48891;49.220;6.920;2022-07-29T04:50:10;5.07;;;3.00;;
62832;SDS011;48891;49.220;6.920;2022-07-29T04:52:36;4.30;;;3.08;;
62832;SDS011;48891;49.220;6.920;2022-07-29T04:55:01;5.30;;;3.10;;
62832;SDS011;48891;49.220;6.920;2022-07-29T04:57:26;5.35;;;2.92;;
62832;SDS011;48891;49.220;6.920;2022-07-29T04:59:52;3.97;;;3.08;;
62832;SDS011;48891;49.220;6.920;2022-07-29T05:02:17;4.10;;;3.30;;
62832;SDS011;48891;49.220;6.920;2022-07-29T05:04:42;4.30;;;3.20;;
62832;SDS011;48891;49.220;6.920;2022-07-29T05:07:07;4.32;;;2.90;;
62832;SDS011;48891;49.220;6.920;2022-07-29T05:09:33;4.68;;;3.10;;
62832;SDS011;48891;49.220;6.920;2022-07-29T05:11:58;5.43;;;3.33;;
62832;SDS011;48891;49.220;6.920;2022-07-29T05:14:23;4.13;;;3.28;;
62832;SDS011;48891;49.220;6.920;2022-07-29T05:16:48;5.20;;;3.07;;
62832;SDS011;48891;49.220;6.920;2022-07-29T05:19:13;6.80;;;3.28;;
62832;SDS011;48891;49.220;6.920;2022-07-29T05:21:38;6.15;;;3.30;;
62832;SDS011;48891;49.220;6.920;2022-07-29T05:24:03;4.63;;;3.05;;
62832;SDS011;48891;49.220;6.920;2022-07-29T05:26:29;5.35;;;3.65;;
62832;SDS011;48891;49.220;6.920;2022-07-29T05:28:54;4.20;;;3.33;;
62832;SDS011;48891;49.220;6.920;2022-07-29T05:31:19;4.18;;;2.97;;
62832;SDS011;48891;49.220;6.920;2022-07-29T05:33:44;4.37;;;2.97;;
62832;SDS011;48891;49.220;6.920;2022-07-29T05:36:09;3.97;;;3.13;;
62832;SDS011;48891;49.220;6.920;2022-07-29T05:38:35;4.68;;;3.58;;
62832;SDS011;48891;49.220;6.920;2022-07-29T05:41:00;4.05;;;3.22;;
62832;SDS011;48891;49.220;6.920;2022-07-29T05:43:28;4.57;;;3.10;;
62832;SDS011;48891;49.220;6.920;2022-07-29T05:45:53;5.18;;;2.92;;
62832;SDS011;48891;49.220;6.920;2022-07-29T05:48:19;4.95;;;3.33;;
62832;SDS011;48891;49.220;6.920;2022-07-29T05:50:44;4.43;;;3.15;;
62832;SDS011;48891;49.220;6.920;2022-07-29T05:53:09;5.53;;;3.20;;
62832;SDS011;48891;49.220;6.920;2022-07-29T05:55:34;6.22;;;3.38;;
62832;SDS011;48891;49.220;6.920;2022-07-29T05:57:59;8.30;;;3.63;;
62832;SDS011;48891;49.220;6.920;2022-07-29T06:00:24;6.25;;;3.47;;
62832;SDS011;48891;49.220;6.920;2022-07-29T06:02:49;4.67;;;3.23;;
62832;SDS011;48891;49.220;6.920;2022-07-29T06:05:15;4.95;;;3.00;;
62832;SDS011;48891;49.220;6.920;2022-07-29T06:07:40;5.90;;;3.25;;
62832;SDS011;48891;49.220;6.920;2022-07-29T06:10:05;4.53;;;3.03;;
62832;SDS011;48891;49.220;6.920;2022-07-29T06:12:30;5.28;;;3.08;;
62832;SDS011;48891;49.220;6.920;2022-07-29T06:14:55;5.22;;;3.22;;
62832;SDS011;48891;49.220;6.920;2022-07-29T06:17:20;3.83;;;3.10;;
62832;SDS011;48891;49.220;6.920;2022-07-29T06:19:45;5.20;;;3.05;;
62832;SDS011;48891;49.220;6.920;2022-07-29T06:22:10;5.83;;;3.50;;
62832;SDS011;48891;49.220;6.920;2022-07-29T06:24:36;6.40;;;3.55;;
62832;SDS011;48891;49.220;6.920;2022-07-29T06:27:01;6.22;;;3.65;;
62832;SDS011;48891;49.220;6.920;2022-07-29T06:29:26;5.70;;;3.28;;
62832;SDS011;48891;49.220;6.920;2022-07-29T06:31:51;6.47;;;3.42;;
62832;SDS011;48891;49.220;6.920;2022-07-29T06:34:16;9.05;;;3.40;;
62832;SDS011;48891;49.220;6.920;2022-07-29T06:36:41;9.20;;;3.60;;
62832;SDS011;48891;49.220;6.920;2022-07-29T06:39:07;8.25;;;3.70;;
62832;SDS011;48891;49.220;6.920;2022-07-29T06:41:32;5.53;;;3.28;;
62832;SDS011;48891;49.220;6.920;2022-07-29T06:43:57;5.83;;;3.60;;
62832;SDS011;48891;49.220;6.920;2022-07-29T06:46:22;6.37;;;3.80;;
62832;SDS011;48891;49.220;6.920;2022-07-29T06:48:47;6.50;;;3.17;;
62832;SDS011;48891;49.220;6.920;2022-07-29T06:51:13;5.60;;;3.40;;
62832;SDS011;48891;49.220;6.920;2022-07-29T06:53:38;6.75;;;3.55;;
62832;SDS011;48891;49.220;6.920;2022-07-29T06:56:04;5.10;;;3.17;;
62832;SDS011;48891;49.220;6.920;2022-07-29T06:58:30;6.03;;;3.50;;
62832;SDS011;48891;49.220;6.920;2022-07-29T07:00:56;6.53;;;3.50;;
62832;SDS011;48891;49.220;6.920;2022-07-29T07:03:21;5.65;;;3.42;;
62832;SDS011;48891;49.220;6.920;2022-07-29T07:05:46;5.28;;;3.40;;
62832;SDS011;48891;49.220;6.920;2022-07-29T07:08:12;5.97;;;3.17;;
62832;SDS011;48891;49.220;6.920;2022-07-29T07:10:37;6.93;;;3.58;;
62832;SDS011;48891;49.220;6.920;2022-07-29T07:13:02;5.47;;;3.20;;
62832;SDS011;48891;49.220;6.920;2022-07-29T07:15:28;4.55;;;2.92;;
62832;SDS011;48891;49.220;6.920;2022-07-29T07:17:53;5.55;;;3.28;;
62832;SDS011;48891;49.220;6.920;2022-07-29T07:20:18;4.85;;;3.08;;
62832;SDS011;48891;49.220;6.920;2022-07-29T07:22:44;5.82;;;3.45;;
62832;SDS011;48891;49.220;6.920;2022-07-29T07:25:09;6.20;;;3.50;;
62832;SDS011;48891;49.220;6.920;2022-07-29T07:27:34;4.80;;;3.35;;
62832;SDS011;48891;49.220;6.920;2022-07-29T07:29:59;4.72;;;3.20;;
62832;SDS011;48891;49.220;6.920;2022-07-29T07:32:24;5.38;;;3.58;;
62832;SDS011;48891;49.220;6.920;2022-07-29T07:34:49;6.15;;;3.35;;
62832;SDS011;48891;49.220;6.920;2022-07-29T07:37:14;5.47;;;3.40;;
62832;SDS011;48891;49.220;6.920;2022-07-29T07:39:40;4.35;;;3.15;;
62832;SDS011;48891;49.220;6.920;2022-07-29T07:42:05;5.35;;;3.00;;
62832;SDS011;48891;49.220;6.920;2022-07-29T07:44:30;5.17;;;2.90;;
62832;SDS011;48891;49.220;6.920;2022-07-29T07:46:55;5.85;;;3.05;;
62832;SDS011;48891;49.220;6.920;2022-07-29T07:49:20;4.70;;;3.25;;
62832;SDS011;48891;49.220;6.920;2022-07-29T07:51:46;6.13;;;3.60;;
62832;SDS011;48891;49.220;6.920;2022-07-29T07:54:11;5.10;;;3.00;;
62832;SDS011;48891;49.220;6.920;2022-07-29T07:56:36;6.45;;;3.25;;
62832;SDS011;48891;49.220;6.920;2022-07-29T07:59:01;4.90;;;3.10;;
62832;SDS011;48891;49.220;6.920;2022-07-29T08:01:26;5.07;;;3.42;;
62832;SDS011;48891;49.220;6.920;2022-07-29T08:03:51;6.70;;;3.35;;
62832;SDS011;48891;49.220;6.920;2022-07-29T08:06:16;5.60;;;3.35;;
62832;SDS011;48891;49.220;6.920;2022-07-29T08:08:41;4.47;;;3.30;;
62832;SDS011;48891;49.220;6.920;2022-07-29T08:11:07;5.38;;;2.88;;
62832;SDS011;48891;49.220;6.920;2022-07-29T08:13:32;4.47;;;3.15;;
62832;SDS011;48891;49.220;6.920;2022-07-29T08:15:58;7.07;;;3.20;;
62832;SDS011;48891;49.220;6.920;2022-07-29T08:18:23;5.38;;;3.10;;
62832;SDS011;48891;49.220;6.920;2022-07-29T08:20:48;4.85;;;3.15;;
62832;SDS011;48891;49.220;6.920;2022-07-29T08:23:14;5.13;;;3.03;;
62832;SDS011;48891;49.220;6.920;2022-07-29T08:25:39;5.95;;;3.40;;
62832;SDS011;48891;49.220;6.920;2022-07-29T08:28:04;5.43;;;3.30;;
62832;SDS011;48891;49.220;6.920;2022-07-29T08:30:29;5.13;;;3.30;;
62832;SDS011;48891;49.220;6.920;2022-07-29T08:32:55;5.97;;;3.20;;
62832;SDS011;48891;49.220;6.920;2022-07-29T08:35:20;4.78;;;3.25;;
62832;SDS011;48891;49.220;6.920;2022-07-29T08:37:45;6.35;;;3.30;;
62832;SDS011;48891;49.220;6.920;2022-07-29T08:40:11;6.20;;;3.33;;
62832;SDS011;48891;49.220;6.920;2022-07-29T08:42:37;5.25;;;3.17;;
62832;SDS011;48891;49.220;6.920;2022-07-29T08:45:02;5.05;;;3.40;;
62832;SDS011;48891;49.220;6.920;2022-07-29T08:47:27;4.60;;;3.25;;
62832;SDS011;48891;49.220;6.920;2022-07-29T08:49:53;6.53;;;3.07;;
62832;SDS011;48891;49.220;6.920;2022-07-29T08:52:18;6.82;;;3.50;;
62832;SDS011;48891;49.220;6.920;2022-07-29T08:54:44;4.63;;;3.05;;
62832;SDS011;48891;49.220;6.920;2022-07-29T08:57:10;6.00;;;3.67;;
62832;SDS011;48891;49.220;6.920;2022-07-29T08:59:37;5.80;;;3.55;;
62832;SDS011;48891;49.220;6.920;2022-07-29T09:02:03;6.97;;;3.10;;
62832;SDS011;48891;49.220;6.920;2022-07-29T09:04:29;6.35;;;3.38;;
62832;SDS011;48891;49.220;6.920;2022-07-29T09:06:55;4.80;;;3.42;;
62832;SDS011;48891;49.220;6.920;2022-07-29T09:09:21;5.55;;;2.90;;
62832;SDS011;48891;49.220;6.920;2022-07-29T09:11:46;4.05;;;2.78;;
62832;SDS011;48891;49.220;6.920;2022-07-29T09:14:12;4.10;;;2.77;;
62832;SDS011;48891;49.220;6.920;2022-07-29T09:16:48;4.72;;;2.65;;
62832;SDS011;48891;49.220;6.920;2022-07-29T09:19:23;4.05;;;2.88;;
62832;SDS011;48891;49.220;6.920;2022-07-29T09:21:49;6.40;;;3.15;;
62832;SDS011;48891;49.220;6.920;2022-07-29T09:24:14;3.17;;;2.53;;
62832;SDS011;48891;49.220;6.920;2022-07-29T09:26:40;4.18;;;2.78;;
62832;SDS011;48891;49.220;6.920;2022-07-29T09:29:18;4.95;;;2.80;;
62832;SDS011;48891;49.220;6.920;2022-07-29T09:31:46;3.85;;;2.50;;
62832;SDS011;48891;49.220;6.920;2022-07-29T09:34:12;3.67;;;2.40;;
62832;SDS011;48891;49.220;6.920;2022-07-29T09:36:38;4.85;;;2.60;;
62832;SDS011;48891;49.220;6.920;2022-07-29T09:39:03;4.80;;;2.50;;
62832;SDS011;48891;49.220;6.920;2022-07-29T09:41:29;4.55;;;2.47;;
62832;SDS011;48891;49.220;6.920;2022-07-29T09:43:54;3.40;;;2.60;;
62832;SDS011;48891;49.220;6.920;2022-07-29T09:46:20;3.47;;;2.33;;
62832;SDS011;48891;49.220;6.920;2022-07-29T09:48:45;4.10;;;2.60;;
62832;SDS011;48891;49.220;6.920;2022-07-29T09:51:30;4.93;;;2.50;;
62832;SDS011;48891;49.220;6.920;2022-07-29T09:53:55;3.75;;;2.50;;
62832;SDS011;48891;49.220;6.920;2022-07-29T09:56:20;3.28;;;2.33;;
62832;SDS011;48891;49.220;6.920;2022-07-29T09:59:06;3.33;;;2.40;;
62832;SDS011;48891;49.220;6.920;2022-07-29T10:01:31;3.50;;;2.45;;
62832;SDS011;48891;49.220;6.920;2022-07-29T10:03:56;4.82;;;2.40;;
62832;SDS011;48891;49.220;6.920;2022-07-29T10:06:21;5.30;;;2.88;;
62832;SDS011;48891;49.220;6.920;2022-07-29T10:08:47;4.82;;;2.80;;
62832;SDS011;48891;49.220;6.920;2022-07-29T10:11:16;4.78;;;2.65;;
62832;SDS011;48891;49.220;6.920;2022-07-29T10:13:42;3.63;;;2.55;;
62832;SDS011;48891;49.220;6.920;2022-07-29T10:16:07;4.68;;;2.60;;
62832;SDS011;48891;49.220;6.920;2022-07-29T10:18:33;7.15;;;2.85;;
62832;SDS011;48891;49.220;6.920;2022-07-29T10:20:58;3.75;;;2.42;;
62832;SDS011;48891;49.220;6.920;2022-07-29T10:23:23;4.93;;;2.73;;
62832;SDS011;48891;49.220;6.920;2022-07-29T10:25:49;4.00;;;2.30;;
62832;SDS011;48891;49.220;6.920;2022-07-29T10:28:14;4.15;;;2.60;;
62832;SDS011;48891;49.220;6.920;2022-07-29T10:30:39;3.70;;;2.40;;
62832;SDS011;48891;49.220;6.920;2022-07-29T10:43:21;3.92;;;2.60;;
62832;SDS011;48891;49.220;6.920;2022-07-29T10:45:48;3.45;;;2.20;;
62832;SDS011;48891;49.220;6.920;2022-07-29T10:48:13;4.15;;;2.25;;
62832;SDS011;48891;49.220;6.920;2022-07-29T10:50:58;3.63;;;2.55;;
62832;SDS011;48891;49.220;6.920;2022-07-29T10:53:23;3.83;;;2.50;;
62832;SDS011;48891;49.220;6.920;2022-07-29T10:55:48;7.03;;;2.63;;
62832;SDS011;48891;49.220;6.920;2022-07-29T10:58:15;3.73;;;2.13;;
62832;SDS011;48891;49.220;6.920;2022-07-29T11:00:40;4.80;;;2.35;;
62832;SDS011;48891;49.220;6.920;2022-07-29T11:03:05;4.53;;;2.37;;
62832;SDS011;48891;49.220;6.920;2022-07-29T11:05:30;6.88;;;2.90;;
62832;SDS011;48891;49.220;6.920;2022-07-29T11:08:16;5.60;;;2.55;;
62832;SDS011;48891;49.220;6.920;2022-07-29T11:10:42;3.83;;;2.50;;
62832;SDS011;48891;49.220;6.920;2022-07-29T11:13:07;4.10;;;2.35;;
62832;SDS011;48891;49.220;6.920;2022-07-29T11:18:16;3.30;;;2.30;;
62832;SDS011;48891;49.220;6.920;2022-07-29T11:20:47;4.00;;;2.42;;
62832;SDS011;48891;49.220;6.920;2022-07-29T11:28:48;6.20;;;2.42;;
62832;SDS011;48891;49.220;6.920;2022-07-29T11:31:14;5.95;;;2.63;;
62832;SDS011;48891;49.220;6.920;2022-07-29T11:33:41;6.03;;;2.30;;
62832;SDS011;48891;49.220;6.920;2022-07-29T11:36:10;5.22;;;2.33;;
62832;SDS011;48891;49.220;6.920;2022-07-29T11:38:35;3.78;;;2.17;;
62832;SDS011;48891;49.220;6.920;2022-07-29T11:43:53;5.30;;;2.30;;
62832;SDS011;48891;49.220;6.920;2022-07-29T11:49:03;5.38;;;2.50;;
62832;SDS011;48891;49.220;6.920;2022-07-29T11:51:28;4.40;;;2.30;;
62832;SDS011;48891;49.220;6.920;2022-07-29T11:53:53;4.80;;;2.42;;
62832;SDS011;48891;49.220;6.920;2022-07-29T11:56:20;6.20;;;2.72;;
62832;SDS011;48891;49.220;6.920;2022-07-29T11:58:46;6.70;;;2.20;;
62832;SDS011;48891;49.220;6.920;2022-07-29T12:01:15;3.23;;;2.13;;
62832;SDS011;48891;49.220;6.920;2022-07-29T12:03:41;4.55;;;2.30;;
62832;SDS011;48891;49.220;6.920;2022-07-29T12:06:12;4.10;;;2.40;;
62832;SDS011;48891;49.220;6.920;2022-07-29T12:08:41;5.53;;;2.13;;
62832;SDS011;48891;49.220;6.920;2022-07-29T12:11:14;5.45;;;2.30;;
62832;SDS011;48891;49.220;6.920;2022-07-29T12:13:40;4.63;;;2.40;;
62832;SDS011;48891;49.220;6.920;2022-07-29T12:16:05;5.45;;;2.50;;
62832;SDS011;48891;49.220;6.920;2022-07-29T12:18:30;3.35;;;2.33;;
62832;SDS011;48891;49.220;6.920;2022-07-29T12:20:56;3.58;;;2.28;;
62832;SDS011;48891;49.220;6.920;2022-07-29T12:23:22;7.30;;;2.53;;
62832;SDS011;48891;49.220;6.920;2022-07-29T12:25:47;5.03;;;2.30;;
62832;SDS011;48891;49.220;6.920;2022-07-29T12:28:12;4.70;;;2.30;;
62832;SDS011;48891;49.220;6.920;2022-07-29T12:30:42;5.68;;;2.33;;
62832;SDS011;48891;49.220;6.920;2022-07-29T12:33:27;4.65;;;2.53;;
62832;SDS011;48891;49.220;6.920;2022-07-29T12:35:53;3.40;;;2.20;;
62832;SDS011;48891;49.220;6.920;2022-07-29T12:38:19;6.22;;;2.63;;
62832;SDS011;48891;49.220;6.920;2022-07-29T12:40:45;4.78;;;2.35;;
62832;SDS011;48891;49.220;6.920;2022-07-29T12:43:11;3.65;;;1.98;;
62832;SDS011;48891;49.220;6.920;2022-07-29T12:45:37;7.30;;;2.55;;
62832;SDS011;48891;49.220;6.920;2022-07-29T12:48:02;4.28;;;2.50;;
62832;SDS011;48891;49.220;6.920;2022-07-29T12:50:28;4.37;;;2.77;;
62832;SDS011;48891;49.220;6.920;2022-07-29T12:52:53;4.50;;;2.50;;
62832;SDS011;48891;49.220;6.920;2022-07-29T12:58:02;4.32;;;2.45;;
62832;SDS011;48891;49.220;6.920;2022-07-29T13:00:27;3.40;;;2.40;;
62832;SDS011;48891;49.220;6.920;2022-07-29T13:02:56;3.00;;;2.10;;
62832;SDS011;48891;49.220;6.920;2022-07-29T13:05:22;3.67;;;2.40;;
62832;SDS011;48891;49.220;6.920;2022-07-29T13:07:47;4.23;;;2.47;;
62832;SDS011;48891;49.220;6.920;2022-07-29T13:10:19;5.37;;;2.40;;
62832;SDS011;48891;49.220;6.920;2022-07-29T13:15:28;3.92;;;2.47;;
62832;SDS011;48891;49.220;6.920;2022-07-29T13:17:53;3.40;;;2.10;;
62832;SDS011;48891;49.220;6.920;2022-07-29T13:20:18;3.58;;;2.35;;
62832;SDS011;48891;49.220;6.920;2022-07-29T13:22:46;2.90;;;2.07;;
62832;SDS011;48891;49.220;6.920;2022-07-29T13:25:12;3.42;;;2.10;;
62832;SDS011;48891;49.220;6.920;2022-07-29T13:27:37;3.33;;;2.10;;
62832;SDS011;48891;49.220;6.920;2022-07-29T13:30:06;4.72;;;2.35;;
62832;SDS011;48891;49.220;6.920;2022-07-29T13:32:32;3.58;;;2.63;;
62832;SDS011;48891;49.220;6.920;2022-07-29T13:34:58;4.38;;;2.35;;
62832;SDS011;48891;49.220;6.920;2022-07-29T13:37:23;4.70;;;2.60;;
62832;SDS011;48891;49.220;6.920;2022-07-29T13:39:48;3.50;;;2.22;;
62832;SDS011;48891;49.220;6.920;2022-07-29T13:42:14;4.18;;;2.40;;
62832;SDS011;48891;49.220;6.920;2022-07-29T13:44:39;4.07;;;2.30;;
62832;SDS011;48891;49.220;6.920;2022-07-29T13:47:05;3.83;;;2.38;;
62832;SDS011;48891;49.220;6.920;2022-07-29T13:49:30;3.42;;;2.17;;
62832;SDS011;48891;49.220;6.920;2022-07-29T13:51:55;3.60;;;2.30;;
62832;SDS011;48891;49.220;6.920;2022-07-29T13:54:20;3.75;;;2.20;;
62832;SDS011;48891;49.220;6.920;2022-07-29T13:56:46;3.60;;;2.30;;
62832;SDS011;48891;49.220;6.920;2022-07-29T13:59:11;2.70;;;2.10;;
62832;SDS011;48891;49.220;6.920;2022-07-29T14:01:36;3.85;;;2.40;;
62832;SDS011;48891;49.220;6.920;2022-07-29T14:04:01;3.30;;;2.27;;
62832;SDS011;48891;49.220;6.920;2022-07-29T14:06:27;5.00;;;2.30;;
62832;SDS011;48891;49.220;6.920;2022-07-29T14:08:52;3.00;;;2.17;;
62832;SDS011;48891;49.220;6.920;2022-07-29T14:11:17;3.00;;;2.30;;
62832;SDS011;48891;49.220;6.920;2022-07-29T14:13:42;3.25;;;2.13;;
62832;SDS011;48891;49.220;6.920;2022-07-29T14:16:07;3.13;;;2.20;;
62832;SDS011;48891;49.220;6.920;2022-07-29T14:18:33;4.68;;;2.53;;
62832;SDS011;48891;49.220;6.920;2022-07-29T14:20:58;3.22;;;2.28;;
62832;SDS011;48891;49.220;6.920;2022-07-29T14:23:23;4.07;;;2.45;;
62832;SDS011;48891;49.220;6.920;2022-07-29T14:25:48;4.65;;;2.60;;
62832;SDS011;48891;49.220;6.920;2022-07-29T14:28:13;4.25;;;2.28;;
62832;SDS011;48891;49.220;6.920;2022-07-29T14:30:38;4.28;;;2.35;;
62832;SDS011;48891;49.220;6.920;2022-07-29T14:33:03;3.78;;;2.28;;
62832;SDS011;48891;49.220;6.920;2022-07-29T14:35:28;3.15;;;2.40;;
62832;SDS011;48891;49.220;6.920;2022-07-29T14:37:54;2.83;;;2.15;;
62832;SDS011;48891;49.220;6.920;2022-07-29T14:40:19;3.97;;;2.67;;
62832;SDS011;48891;49.220;6.920;2022-07-29T14:42:44;4.80;;;2.60;;
62832;SDS011;48891;49.220;6.920;2022-07-29T14:45:09;3.53;;;2.20;;
62832;SDS011;48891;49.220;6.920;2022-07-29T14:47:34;3.85;;;2.35;;
62832;SDS011;48891;49.220;6.920;2022-07-29T14:49:59;4.27;;;2.27;;
62832;SDS011;48891;49.220;6.920;2022-07-29T14:52:24;3.33;;;2.43;;
62832;SDS011;48891;49.220;6.920;2022-07-29T14:54:50;3.33;;;2.20;;
62832;SDS011;48891;49.220;6.920;2022-07-29T14:57:15;2.80;;;2.20;;
62832;SDS011;48891;49.220;6.920;2022-07-29T14:59:40;2.53;;;2.23;;
62832;SDS011;48891;49.220;6.920;2022-07-29T15:02:05;3.38;;;2.22;;
62832;SDS011;48891;49.220;6.920;2022-07-29T15:04:30;3.33;;;2.50;;
62832;SDS011;48891;49.220;6.920;2022-07-29T15:06:55;3.38;;;2.50;;
62832;SDS011;48891;49.220;6.920;2022-07-29T15:09:20;4.25;;;2.67;;
62832;SDS011;48891;49.220;6.920;2022-07-29T15:11:46;3.40;;;2.30;;
62832;SDS011;48891;49.220;6.920;2022-07-29T15:14:11;3.80;;;2.58;;
62832;SDS011;48891;49.220;6.920;2022-07-29T15:16:36;3.40;;;2.15;;
62832;SDS011;48891;49.220;6.920;2022-07-29T15:19:02;3.75;;;2.63;;
62832;SDS011;48891;49.220;6.920;2022-07-29T15:21:27;3.08;;;2.60;;
62832;SDS011;48891;49.220;6.920;2022-07-29T15:23:52;3.50;;;2.60;;
62832;SDS011;48891;49.220;6.920;2022-07-29T15:26:17;4.05;;;2.50;;
62832;SDS011;48891;49.220;6.920;2022-07-29T15:28:42;3.65;;;2.63;;